Evansville, Indiana
Current Conditions -  °F | °C
As of 5:54 PM on Thursday 27 Nov 2014 (Local Time) from KEVV Reporting Station
Broken Clouds Broken Clouds  
Wind Chill: -1°   Ceiling: 4000
Heat Index: -1°   Visibility: 10mi
Dew Point: -6°   Wind: 3mph
Humidity: 69%   Direction: 280°W
Pressure: 30.47"   Gusts: NA
Location:  37.98°N, 87.56°W
Report Text: KEVV 272354Z 28003KT 10SM BKN040 M01/M06 A3047 RMK AO2 SLP323 60000 T10111061 10000 21011 51007
Loading
Personal Weather Stations






























Interactive Weather Map New forecast layout! Learn more

10-Day Weather Forecast

Advertisements
Track Severe Weather on mobile